sensor_id;sensor_type;location;lat;lon;timestamp;P1;durP1;ratioP1;P2;durP2;ratioP2
36995;SDS011;22905;50.340;10.776;2023-03-01T00:02:06;26.90;;;9.73;;
36995;SDS011;22905;50.340;10.776;2023-03-01T00:07:07;24.88;;;11.05;;
36995;SDS011;22905;50.340;10.776;2023-03-01T00:12:07;25.55;;;11.50;;
36995;SDS011;22905;50.340;10.776;2023-03-01T00:17:07;29.97;;;9.93;;
36995;SDS011;22905;50.340;10.776;2023-03-01T00:22:08;24.02;;;10.50;;
36995;SDS011;22905;50.340;10.776;2023-03-01T00:27:08;35.20;;;12.63;;
36995;SDS011;22905;50.340;10.776;2023-03-01T00:32:08;30.50;;;13.30;;
36995;SDS011;22905;50.340;10.776;2023-03-01T00:37:09;23.83;;;12.10;;
36995;SDS011;22905;50.340;10.776;2023-03-01T00:42:09;27.15;;;11.73;;
36995;SDS011;22905;50.340;10.776;2023-03-01T00:47:09;19.40;;;9.48;;
36995;SDS011;22905;50.340;10.776;2023-03-01T00:52:10;20.45;;;10.23;;
36995;SDS011;22905;50.340;10.776;2023-03-01T00:57:10;32.13;;;12.52;;
36995;SDS011;22905;50.340;10.776;2023-03-01T01:02:10;19.38;;;10.15;;
36995;SDS011;22905;50.340;10.776;2023-03-01T01:07:10;24.13;;;9.70;;
36995;SDS011;22905;50.340;10.776;2023-03-01T01:12:11;18.58;;;10.23;;
36995;SDS011;22905;50.340;10.776;2023-03-01T01:17:11;26.20;;;11.00;;
36995;SDS011;22905;50.340;10.776;2023-03-01T01:22:12;23.77;;;10.80;;
36995;SDS011;22905;50.340;10.776;2023-03-01T01:27:12;23.05;;;11.35;;
36995;SDS011;22905;50.340;10.776;2023-03-01T01:32:12;21.02;;;9.73;;
36995;SDS011;22905;50.340;10.776;2023-03-01T01:37:13;29.13;;;10.85;;
36995;SDS011;22905;50.340;10.776;2023-03-01T01:42:15;20.17;;;10.90;;
36995;SDS011;22905;50.340;10.776;2023-03-01T01:47:20;25.25;;;10.73;;
36995;SDS011;22905;50.340;10.776;2023-03-01T01:52:31;24.67;;;10.50;;
36995;SDS011;22905;50.340;10.776;2023-03-01T01:57:48;24.60;;;10.45;;
36995;SDS011;22905;50.340;10.776;2023-03-01T02:02:57;24.63;;;10.50;;
36995;SDS011;22905;50.340;10.776;2023-03-01T02:08:03;28.17;;;10.27;;
36995;SDS011;22905;50.340;10.776;2023-03-01T02:13:04;26.38;;;10.23;;
36995;SDS011;22905;50.340;10.776;2023-03-01T02:18:05;24.58;;;11.60;;
36995;SDS011;22905;50.340;10.776;2023-03-01T02:23:06;25.65;;;10.43;;
36995;SDS011;22905;50.340;10.776;2023-03-01T02:33:13;22.48;;;11.63;;
36995;SDS011;22905;50.340;10.776;2023-03-01T02:38:14;22.67;;;11.98;;
36995;SDS011;22905;50.340;10.776;2023-03-01T02:43:14;22.30;;;9.93;;
36995;SDS011;22905;50.340;10.776;2023-03-01T02:48:16;30.33;;;12.32;;
36995;SDS011;22905;50.340;10.776;2023-03-01T02:53:19;23.38;;;10.30;;
36995;SDS011;22905;50.340;10.776;2023-03-01T02:58:25;22.13;;;11.40;;
36995;SDS011;22905;50.340;10.776;2023-03-01T03:03:25;22.48;;;11.18;;
36995;SDS011;22905;50.340;10.776;2023-03-01T03:08:26;30.30;;;12.25;;
36995;SDS011;22905;50.340;10.776;2023-03-01T03:13:26;18.80;;;9.48;;
36995;SDS011;22905;50.340;10.776;2023-03-01T03:18:28;20.40;;;11.13;;
36995;SDS011;22905;50.340;10.776;2023-03-01T03:23:28;31.15;;;12.73;;
36995;SDS011;22905;50.340;10.776;2023-03-01T03:28:30;29.60;;;10.82;;
36995;SDS011;22905;50.340;10.776;2023-03-01T03:33:31;22.42;;;10.75;;
36995;SDS011;22905;50.340;10.776;2023-03-01T03:38:31;25.20;;;10.90;;
36995;SDS011;22905;50.340;10.776;2023-03-01T03:43:32;21.17;;;10.55;;
36995;SDS011;22905;50.340;10.776;2023-03-01T03:53:35;28.73;;;11.68;;
36995;SDS011;22905;50.340;10.776;2023-03-01T03:58:36;21.37;;;10.30;;
36995;SDS011;22905;50.340;10.776;2023-03-01T04:03:36;29.55;;;11.07;;
36995;SDS011;22905;50.340;10.776;2023-03-01T04:08:37;25.37;;;12.83;;
36995;SDS011;22905;50.340;10.776;2023-03-01T04:13:37;21.90;;;11.25;;
36995;SDS011;22905;50.340;10.776;2023-03-01T04:18:37;29.60;;;12.02;;
36995;SDS011;22905;50.340;10.776;2023-03-01T04:23:38;27.20;;;12.52;;
36995;SDS011;22905;50.340;10.776;2023-03-01T04:28:39;29.55;;;12.93;;
36995;SDS011;22905;50.340;10.776;2023-03-01T04:33:44;30.30;;;11.88;;
36995;SDS011;22905;50.340;10.776;2023-03-01T04:38:51;27.58;;;12.65;;
36995;SDS011;22905;50.340;10.776;2023-03-01T04:43:52;33.25;;;11.82;;
36995;SDS011;22905;50.340;10.776;2023-03-01T04:48:52;27.87;;;11.63;;
36995;SDS011;22905;50.340;10.776;2023-03-01T04:53:53;23.38;;;10.82;;
36995;SDS011;22905;50.340;10.776;2023-03-01T04:58:53;29.63;;;13.00;;
36995;SDS011;22905;50.340;10.776;2023-03-01T05:03:54;39.60;;;13.13;;
36995;SDS011;22905;50.340;10.776;2023-03-01T05:08:54;30.90;;;11.93;;
36995;SDS011;22905;50.340;10.776;2023-03-01T05:13:54;33.10;;;13.77;;
36995;SDS011;22905;50.340;10.776;2023-03-01T05:18:55;32.28;;;12.48;;
36995;SDS011;22905;50.340;10.776;2023-03-01T05:23:56;34.05;;;13.07;;
36995;SDS011;22905;50.340;10.776;2023-03-01T05:28:56;26.17;;;11.93;;
36995;SDS011;22905;50.340;10.776;2023-03-01T05:33:58;30.87;;;12.43;;
36995;SDS011;22905;50.340;10.776;2023-03-01T05:38:58;28.37;;;12.80;;
36995;SDS011;22905;50.340;10.776;2023-03-01T05:43:59;31.27;;;12.13;;
36995;SDS011;22905;50.340;10.776;2023-03-01T05:49:00;34.13;;;13.27;;
36995;SDS011;22905;50.340;10.776;2023-03-01T05:54:00;39.27;;;14.27;;
36995;SDS011;22905;50.340;10.776;2023-03-01T05:59:01;29.13;;;13.05;;
36995;SDS011;22905;50.340;10.776;2023-03-01T06:04:02;32.00;;;13.63;;
36995;SDS011;22905;50.340;10.776;2023-03-01T06:09:04;37.05;;;14.55;;
36995;SDS011;22905;50.340;10.776;2023-03-01T06:14:07;42.10;;;15.55;;
36995;SDS011;22905;50.340;10.776;2023-03-01T06:19:08;44.33;;;17.83;;
36995;SDS011;22905;50.340;10.776;2023-03-01T06:24:08;36.43;;;14.20;;
36995;SDS011;22905;50.340;10.776;2023-03-01T06:29:09;34.05;;;15.63;;
36995;SDS011;22905;50.340;10.776;2023-03-01T06:34:09;35.28;;;16.05;;
36995;SDS011;22905;50.340;10.776;2023-03-01T06:39:13;30.85;;;13.38;;
36995;SDS011;22905;50.340;10.776;2023-03-01T06:44:13;36.47;;;14.67;;
36995;SDS011;22905;50.340;10.776;2023-03-01T06:49:13;35.10;;;15.37;;
36995;SDS011;22905;50.340;10.776;2023-03-01T06:54:18;40.33;;;16.95;;
36995;SDS011;22905;50.340;10.776;2023-03-01T06:59:19;47.28;;;19.35;;
36995;SDS011;22905;50.340;10.776;2023-03-01T07:04:19;43.00;;;16.98;;
36995;SDS011;22905;50.340;10.776;2023-03-01T07:09:19;44.77;;;19.67;;
36995;SDS011;22905;50.340;10.776;2023-03-01T07:14:21;76.53;;;28.10;;
36995;SDS011;22905;50.340;10.776;2023-03-01T07:19:24;66.75;;;27.02;;
36995;SDS011;22905;50.340;10.776;2023-03-01T07:24:24;56.00;;;19.90;;
36995;SDS011;22905;50.340;10.776;2023-03-01T07:29:25;46.95;;;18.02;;
36995;SDS011;22905;50.340;10.776;2023-03-01T07:34:25;44.42;;;17.63;;
36995;SDS011;22905;50.340;10.776;2023-03-01T07:39:25;53.83;;;21.55;;
36995;SDS011;22905;50.340;10.776;2023-03-01T07:44:26;44.70;;;19.52;;
36995;SDS011;22905;50.340;10.776;2023-03-01T07:49:26;37.03;;;17.87;;
36995;SDS011;22905;50.340;10.776;2023-03-01T07:54:27;34.78;;;16.00;;
36995;SDS011;22905;50.340;10.776;2023-03-01T07:59:27;32.80;;;13.77;;
36995;SDS011;22905;50.340;10.776;2023-03-01T08:04:29;29.55;;;13.68;;
36995;SDS011;22905;50.340;10.776;2023-03-01T08:09:29;31.15;;;13.60;;
36995;SDS011;22905;50.340;10.776;2023-03-01T08:14:29;36.85;;;15.57;;
36995;SDS011;22905;50.340;10.776;2023-03-01T08:19:30;23.80;;;12.35;;
36995;SDS011;22905;50.340;10.776;2023-03-01T08:24:31;27.23;;;11.85;;
36995;SDS011;22905;50.340;10.776;2023-03-01T08:29:31;30.77;;;13.80;;
36995;SDS011;22905;50.340;10.776;2023-03-01T08:34:32;30.50;;;13.10;;
36995;SDS011;22905;50.340;10.776;2023-03-01T08:39:35;33.10;;;14.48;;
36995;SDS011;22905;50.340;10.776;2023-03-01T08:44:35;31.77;;;15.40;;
36995;SDS011;22905;50.340;10.776;2023-03-01T08:49:36;29.83;;;13.65;;
36995;SDS011;22905;50.340;10.776;2023-03-01T08:54:36;29.85;;;13.80;;
36995;SDS011;22905;50.340;10.776;2023-03-01T08:59:36;27.85;;;11.82;;
36995;SDS011;22905;50.340;10.776;2023-03-01T09:04:37;25.70;;;11.43;;
36995;SDS011;22905;50.340;10.776;2023-03-01T09:09:37;25.83;;;11.98;;
36995;SDS011;22905;50.340;10.776;2023-03-01T09:14:37;27.67;;;11.57;;
36995;SDS011;22905;50.340;10.776;2023-03-01T09:19:38;29.08;;;13.32;;
36995;SDS011;22905;50.340;10.776;2023-03-01T09:24:39;24.13;;;11.97;;
36995;SDS011;22905;50.340;10.776;2023-03-01T09:29:40;30.52;;;12.63;;
36995;SDS011;22905;50.340;10.776;2023-03-01T09:34:40;26.40;;;12.40;;
36995;SDS011;22905;50.340;10.776;2023-03-01T09:39:59;25.17;;;12.30;;
36995;SDS011;22905;50.340;10.776;2023-03-01T09:45:11;24.42;;;12.02;;
36995;SDS011;22905;50.340;10.776;2023-03-01T09:50:21;29.27;;;12.73;;
36995;SDS011;22905;50.340;10.776;2023-03-01T09:55:25;26.40;;;13.02;;
36995;SDS011;22905;50.340;10.776;2023-03-01T10:00:33;27.30;;;12.23;;
36995;SDS011;22905;50.340;10.776;2023-03-01T10:11:02;20.83;;;11.27;;
36995;SDS011;22905;50.340;10.776;2023-03-01T10:16:05;27.33;;;11.10;;
36995;SDS011;22905;50.340;10.776;2023-03-01T10:21:13;22.73;;;10.90;;
36995;SDS011;22905;50.340;10.776;2023-03-01T10:31:24;24.83;;;8.45;;
36995;SDS011;22905;50.340;10.776;2023-03-01T10:36:36;19.83;;;9.30;;
36995;SDS011;22905;50.340;10.776;2023-03-01T10:52:22;21.52;;;8.45;;
36995;SDS011;22905;50.340;10.776;2023-03-01T10:57:28;15.40;;;8.68;;
36995;SDS011;22905;50.340;10.776;2023-03-01T11:02:33;17.52;;;8.35;;
36995;SDS011;22905;50.340;10.776;2023-03-01T11:07:36;19.65;;;9.32;;
36995;SDS011;22905;50.340;10.776;2023-03-01T11:12:50;17.60;;;9.10;;
36995;SDS011;22905;50.340;10.776;2023-03-01T11:17:52;21.50;;;9.27;;
36995;SDS011;22905;50.340;10.776;2023-03-01T11:22:54;29.77;;;13.90;;
36995;SDS011;22905;50.340;10.776;2023-03-01T11:27:56;21.33;;;9.32;;
36995;SDS011;22905;50.340;10.776;2023-03-01T11:38:09;19.00;;;7.95;;
36995;SDS011;22905;50.340;10.776;2023-03-01T11:58:46;17.55;;;8.23;;
36995;SDS011;22905;50.340;10.776;2023-03-01T12:30:25;12.18;;;6.93;;
36995;SDS011;22905;50.340;10.776;2023-03-01T12:41:01;11.70;;;7.47;;
36995;SDS011;22905;50.340;10.776;2023-03-01T12:51:54;20.00;;;8.98;;
36995;SDS011;22905;50.340;10.776;2023-03-01T12:57:00;20.17;;;9.48;;
36995;SDS011;22905;50.340;10.776;2023-03-01T13:07:30;21.63;;;9.70;;
36995;SDS011;22905;50.340;10.776;2023-03-01T13:17:43;19.50;;;8.93;;
36995;SDS011;22905;50.340;10.776;2023-03-01T13:22:45;23.10;;;11.10;;
36995;SDS011;22905;50.340;10.776;2023-03-01T13:27:47;25.00;;;11.87;;
36995;SDS011;22905;50.340;10.776;2023-03-01T13:32:47;33.92;;;14.70;;
36995;SDS011;22905;50.340;10.776;2023-03-01T13:37:47;20.02;;;9.82;;
36995;SDS011;22905;50.340;10.776;2023-03-01T13:42:51;23.02;;;11.70;;
36995;SDS011;22905;50.340;10.776;2023-03-01T13:47:54;25.98;;;10.93;;
36995;SDS011;22905;50.340;10.776;2023-03-01T13:52:59;26.70;;;11.90;;
36995;SDS011;22905;50.340;10.776;2023-03-01T13:58:01;25.05;;;11.02;;
36995;SDS011;22905;50.340;10.776;2023-03-01T14:03:03;23.40;;;12.00;;
36995;SDS011;22905;50.340;10.776;2023-03-01T14:08:05;20.77;;;10.47;;
36995;SDS011;22905;50.340;10.776;2023-03-01T14:18:26;20.13;;;10.95;;
36995;SDS011;22905;50.340;10.776;2023-03-01T14:23:48;20.70;;;10.82;;
36995;SDS011;22905;50.340;10.776;2023-03-01T14:28:49;25.02;;;9.88;;
36995;SDS011;22905;50.340;10.776;2023-03-01T14:33:54;31.90;;;12.05;;
36995;SDS011;22905;50.340;10.776;2023-03-01T14:38:55;24.23;;;10.95;;
36995;SDS011;22905;50.340;10.776;2023-03-01T14:43:59;23.05;;;10.93;;
36995;SDS011;22905;50.340;10.776;2023-03-01T14:49:03;24.73;;;11.57;;
36995;SDS011;22905;50.340;10.776;2023-03-01T14:54:11;27.85;;;10.93;;
36995;SDS011;22905;50.340;10.776;2023-03-01T14:59:23;21.83;;;10.55;;
36995;SDS011;22905;50.340;10.776;2023-03-01T15:04:24;27.35;;;11.35;;
36995;SDS011;22905;50.340;10.776;2023-03-01T15:09:26;28.00;;;12.00;;
36995;SDS011;22905;50.340;10.776;2023-03-01T15:14:27;25.93;;;13.07;;
36995;SDS011;22905;50.340;10.776;2023-03-01T15:19:28;25.10;;;11.77;;
36995;SDS011;22905;50.340;10.776;2023-03-01T15:24:29;32.53;;;11.63;;
36995;SDS011;22905;50.340;10.776;2023-03-01T15:34:34;25.80;;;11.63;;
36995;SDS011;22905;50.340;10.776;2023-03-01T15:39:43;22.90;;;11.75;;
36995;SDS011;22905;50.340;10.776;2023-03-01T15:50:29;22.25;;;10.63;;
36995;SDS011;22905;50.340;10.776;2023-03-01T15:55:32;26.75;;;11.88;;
36995;SDS011;22905;50.340;10.776;2023-03-01T16:00:33;23.70;;;12.63;;
36995;SDS011;22905;50.340;10.776;2023-03-01T16:05:34;20.77;;;11.00;;
36995;SDS011;22905;50.340;10.776;2023-03-01T16:10:36;26.02;;;11.35;;
36995;SDS011;22905;50.340;10.776;2023-03-01T16:15:36;28.13;;;12.57;;
36995;SDS011;22905;50.340;10.776;2023-03-01T16:20:37;22.92;;;11.43;;
36995;SDS011;22905;50.340;10.776;2023-03-01T16:25:39;28.38;;;12.85;;
36995;SDS011;22905;50.340;10.776;2023-03-01T16:30:39;28.67;;;13.00;;
36995;SDS011;22905;50.340;10.776;2023-03-01T16:35:40;27.33;;;13.13;;
36995;SDS011;22905;50.340;10.776;2023-03-01T16:40:40;29.20;;;11.82;;
36995;SDS011;22905;50.340;10.776;2023-03-01T16:45:47;32.47;;;13.38;;
36995;SDS011;22905;50.340;10.776;2023-03-01T16:50:59;30.38;;;12.55;;
36995;SDS011;22905;50.340;10.776;2023-03-01T16:56:00;35.20;;;14.50;;
36995;SDS011;22905;50.340;10.776;2023-03-01T17:01:11;33.47;;;15.55;;
36995;SDS011;22905;50.340;10.776;2023-03-01T17:06:14;34.65;;;14.90;;
36995;SDS011;22905;50.340;10.776;2023-03-01T17:11:18;33.40;;;14.45;;
36995;SDS011;22905;50.340;10.776;2023-03-01T17:16:20;31.70;;;14.45;;
36995;SDS011;22905;50.340;10.776;2023-03-01T17:21:20;38.08;;;15.18;;
36995;SDS011;22905;50.340;10.776;2023-03-01T17:26:20;39.20;;;15.53;;
36995;SDS011;22905;50.340;10.776;2023-03-01T17:31:21;28.87;;;13.90;;
36995;SDS011;22905;50.340;10.776;2023-03-01T17:36:22;38.05;;;14.23;;
36995;SDS011;22905;50.340;10.776;2023-03-01T17:41:22;40.13;;;16.02;;
36995;SDS011;22905;50.340;10.776;2023-03-01T17:46:23;38.55;;;16.23;;
36995;SDS011;22905;50.340;10.776;2023-03-01T17:51:25;31.97;;;14.00;;
36995;SDS011;22905;50.340;10.776;2023-03-01T17:56:26;29.80;;;13.50;;
36995;SDS011;22905;50.340;10.776;2023-03-01T18:01:27;33.20;;;13.90;;
36995;SDS011;22905;50.340;10.776;2023-03-01T18:06:27;30.30;;;13.43;;
36995;SDS011;22905;50.340;10.776;2023-03-01T18:11:28;26.15;;;12.13;;
36995;SDS011;22905;50.340;10.776;2023-03-01T18:16:28;34.20;;;14.27;;
36995;SDS011;22905;50.340;10.776;2023-03-01T18:21:30;33.92;;;14.48;;
36995;SDS011;22905;50.340;10.776;2023-03-01T18:26:31;36.58;;;15.60;;
36995;SDS011;22905;50.340;10.776;2023-03-01T18:31:31;31.33;;;14.37;;
36995;SDS011;22905;50.340;10.776;2023-03-01T18:36:33;33.17;;;14.02;;
36995;SDS011;22905;50.340;10.776;2023-03-01T18:41:34;30.03;;;14.33;;
36995;SDS011;22905;50.340;10.776;2023-03-01T18:46:35;31.48;;;14.38;;
36995;SDS011;22905;50.340;10.776;2023-03-01T18:51:37;36.15;;;14.88;;
36995;SDS011;22905;50.340;10.776;2023-03-01T18:56:38;33.72;;;14.32;;
36995;SDS011;22905;50.340;10.776;2023-03-01T19:01:38;38.43;;;15.77;;
36995;SDS011;22905;50.340;10.776;2023-03-01T19:06:39;31.70;;;14.00;;
36995;SDS011;22905;50.340;10.776;2023-03-01T19:11:39;39.37;;;14.33;;
36995;SDS011;22905;50.340;10.776;2023-03-01T19:16:39;41.07;;;16.47;;
36995;SDS011;22905;50.340;10.776;2023-03-01T19:21:40;41.43;;;17.93;;
36995;SDS011;22905;50.340;10.776;2023-03-01T19:26:40;39.33;;;15.63;;
36995;SDS011;22905;50.340;10.776;2023-03-01T19:31:40;39.47;;;20.42;;
36995;SDS011;22905;50.340;10.776;2023-03-01T19:36:41;42.65;;;18.52;;
36995;SDS011;22905;50.340;10.776;2023-03-01T19:41:42;57.75;;;22.88;;
36995;SDS011;22905;50.340;10.776;2023-03-01T19:46:42;55.40;;;23.75;;
36995;SDS011;22905;50.340;10.776;2023-03-01T19:51:43;47.63;;;19.80;;
36995;SDS011;22905;50.340;10.776;2023-03-01T19:56:43;37.83;;;16.20;;
36995;SDS011;22905;50.340;10.776;2023-03-01T20:01:43;37.95;;;14.60;;
36995;SDS011;22905;50.340;10.776;2023-03-01T20:06:44;39.97;;;16.33;;
36995;SDS011;22905;50.340;10.776;2023-03-01T20:11:45;45.03;;;15.52;;
36995;SDS011;22905;50.340;10.776;2023-03-01T20:16:46;37.47;;;14.40;;
36995;SDS011;22905;50.340;10.776;2023-03-01T20:21:46;41.53;;;15.80;;
36995;SDS011;22905;50.340;10.776;2023-03-01T20:26:46;41.85;;;16.58;;
36995;SDS011;22905;50.340;10.776;2023-03-01T20:31:47;46.43;;;17.23;;
36995;SDS011;22905;50.340;10.776;2023-03-01T20:36:47;55.85;;;24.58;;
36995;SDS011;22905;50.340;10.776;2023-03-01T20:41:48;55.22;;;23.27;;
36995;SDS011;22905;50.340;10.776;2023-03-01T20:46:48;43.07;;;17.83;;
36995;SDS011;22905;50.340;10.776;2023-03-01T20:51:49;42.25;;;18.13;;
36995;SDS011;22905;50.340;10.776;2023-03-01T20:56:49;42.42;;;18.13;;
36995;SDS011;22905;50.340;10.776;2023-03-01T21:01:50;40.47;;;18.25;;
36995;SDS011;22905;50.340;10.776;2023-03-01T21:06:50;45.95;;;17.15;;
36995;SDS011;22905;50.340;10.776;2023-03-01T21:11:50;44.60;;;18.00;;
36995;SDS011;22905;50.340;10.776;2023-03-01T21:16:51;68.03;;;24.60;;
36995;SDS011;22905;50.340;10.776;2023-03-01T21:21:51;87.40;;;29.27;;
36995;SDS011;22905;50.340;10.776;2023-03-01T21:26:51;71.23;;;25.73;;
36995;SDS011;22905;50.340;10.776;2023-03-01T21:31:52;58.47;;;22.83;;
36995;SDS011;22905;50.340;10.776;2023-03-01T21:36:52;56.47;;;21.67;;
36995;SDS011;22905;50.340;10.776;2023-03-01T21:41:52;66.03;;;22.38;;
36995;SDS011;22905;50.340;10.776;2023-03-01T21:46:52;64.82;;;25.48;;
36995;SDS011;22905;50.340;10.776;2023-03-01T21:51:53;56.35;;;22.13;;
36995;SDS011;22905;50.340;10.776;2023-03-01T21:56:53;57.20;;;22.45;;
36995;SDS011;22905;50.340;10.776;2023-03-01T22:01:54;56.38;;;21.13;;
36995;SDS011;22905;50.340;10.776;2023-03-01T22:06:54;48.05;;;19.05;;
36995;SDS011;22905;50.340;10.776;2023-03-01T22:11:55;57.10;;;21.67;;
36995;SDS011;22905;50.340;10.776;2023-03-01T22:17:01;42.97;;;17.83;;
36995;SDS011;22905;50.340;10.776;2023-03-01T22:22:01;37.15;;;18.10;;
36995;SDS011;22905;50.340;10.776;2023-03-01T22:27:01;38.33;;;16.23;;
36995;SDS011;22905;50.340;10.776;2023-03-01T22:32:02;36.30;;;15.83;;
36995;SDS011;22905;50.340;10.776;2023-03-01T22:37:03;32.30;;;14.50;;
36995;SDS011;22905;50.340;10.776;2023-03-01T22:42:03;39.60;;;15.40;;
36995;SDS011;22905;50.340;10.776;2023-03-01T22:47:05;33.70;;;15.63;;
36995;SDS011;22905;50.340;10.776;2023-03-01T22:52:05;47.75;;;18.88;;
36995;SDS011;22905;50.340;10.776;2023-03-01T22:57:06;39.88;;;15.75;;
36995;SDS011;22905;50.340;10.776;2023-03-01T23:02:07;40.50;;;16.33;;
36995;SDS011;22905;50.340;10.776;2023-03-01T23:07:08;36.35;;;14.45;;
36995;SDS011;22905;50.340;10.776;2023-03-01T23:12:08;33.20;;;13.25;;
36995;SDS011;22905;50.340;10.776;2023-03-01T23:17:09;38.95;;;16.35;;
36995;SDS011;22905;50.340;10.776;2023-03-01T23:22:11;38.17;;;15.57;;
36995;SDS011;22905;50.340;10.776;2023-03-01T23:27:12;39.60;;;17.13;;
36995;SDS011;22905;50.340;10.776;2023-03-01T23:32:14;36.95;;;14.52;;
36995;SDS011;22905;50.340;10.776;2023-03-01T23:37:14;49.27;;;18.17;;
36995;SDS011;22905;50.340;10.776;2023-03-01T23:42:15;38.78;;;14.77;;
36995;SDS011;22905;50.340;10.776;2023-03-01T23:47:15;36.92;;;14.15;;
36995;SDS011;22905;50.340;10.776;2023-03-01T23:52:15;35.33;;;14.30;;
36995;SDS011;22905;50.340;10.776;2023-03-01T23:57:16;32.13;;;13.23;;
